sensor_id;sensor_type;location;lat;lon;timestamp;temperature;humidity
51559;DHT22;61650;48.882;2.092;2023-09-19T00:02:01;13.80;99.90
51559;DHT22;61650;48.882;2.092;2023-09-19T00:04:33;13.80;99.90
51559;DHT22;61650;48.882;2.092;2023-09-19T00:06:58;13.70;99.90
51559;DHT22;61650;48.882;2.092;2023-09-19T00:09:24;13.70;99.90
51559;DHT22;61650;48.882;2.092;2023-09-19T00:11:52;13.60;99.90
51559;DHT22;61650;48.882;2.092;2023-09-19T00:14:18;13.60;99.90
51559;DHT22;61650;48.882;2.092;2023-09-19T00:16:43;13.60;99.90
51559;DHT22;61650;48.882;2.092;2023-09-19T00:19:09;13.60;99.90
51559;DHT22;61650;48.882;2.092;2023-09-19T00:21:35;13.60;99.90
51559;DHT22;61650;48.882;2.092;2023-09-19T00:24:03;13.50;99.90
51559;DHT22;61650;48.882;2.092;2023-09-19T00:26:31;13.50;99.90
51559;DHT22;61650;48.882;2.092;2023-09-19T00:28:56;13.50;99.90
51559;DHT22;61650;48.882;2.092;2023-09-19T00:31:22;13.50;99.90
51559;DHT22;61650;48.882;2.092;2023-09-19T00:33:48;13.50;99.90
51559;DHT22;61650;48.882;2.092;2023-09-19T00:36:14;13.40;99.90
51559;DHT22;61650;48.882;2.092;2023-09-19T00:38:39;13.40;99.90
51559;DHT22;61650;48.882;2.092;2023-09-19T00:41:05;13.40;99.90
51559;DHT22;61650;48.882;2.092;2023-09-19T00:43:30;13.40;99.90
51559;DHT22;61650;48.882;2.092;2023-09-19T00:45:59;13.40;99.90
51559;DHT22;61650;48.882;2.092;2023-09-19T00:48:26;13.30;99.90
51559;DHT22;61650;48.882;2.092;2023-09-19T00:50:54;13.30;99.90
51559;DHT22;61650;48.882;2.092;2023-09-19T00:53:23;13.20;99.90
51559;DHT22;61650;48.882;2.092;2023-09-19T00:55:50;13.20;99.90
51559;DHT22;61650;48.882;2.092;2023-09-19T00:58:17;13.20;99.90
51559;DHT22;61650;48.882;2.092;2023-09-19T01:00:43;13.10;99.90
51559;DHT22;61650;48.882;2.092;2023-09-19T01:03:10;13.20;99.90
51559;DHT22;61650;48.882;2.092;2023-09-19T01:05:35;13.10;99.90
51559;DHT22;61650;48.882;2.092;2023-09-19T01:08:01;13.10;99.90
51559;DHT22;61650;48.882;2.092;2023-09-19T01:10:26;13.10;99.90
51559;DHT22;61650;48.882;2.092;2023-09-19T01:13:07;13.00;99.90
51559;DHT22;61650;48.882;2.092;2023-09-19T01:20:41;13.00;99.90
51559;DHT22;61650;48.882;2.092;2023-09-19T01:30:57;13.00;99.90
51559;DHT22;61650;48.882;2.092;2023-09-19T01:33:24;12.90;99.90
51559;DHT22;61650;48.882;2.092;2023-09-19T01:35:49;12.90;99.90
51559;DHT22;61650;48.882;2.092;2023-09-19T01:38:15;12.80;99.90
51559;DHT22;61650;48.882;2.092;2023-09-19T01:40:42;12.90;99.90
51559;DHT22;61650;48.882;2.092;2023-09-19T01:50:55;12.90;99.90
51559;DHT22;61650;48.882;2.092;2023-09-19T01:53:28;12.90;99.90
51559;DHT22;61650;48.882;2.092;2023-09-19T01:55:55;12.80;99.90
51559;DHT22;61650;48.882;2.092;2023-09-19T01:58:41;12.80;99.90
51559;DHT22;61650;48.882;2.092;2023-09-19T02:01:09;12.80;99.90
51559;DHT22;61650;48.882;2.092;2023-09-19T02:03:38;12.80;99.90
51559;DHT22;61650;48.882;2.092;2023-09-19T02:06:05;12.80;99.90
51559;DHT22;61650;48.882;2.092;2023-09-19T02:08:30;12.80;99.90
51559;DHT22;61650;48.882;2.092;2023-09-19T02:10:58;12.80;99.90
51559;DHT22;61650;48.882;2.092;2023-09-19T02:13:25;12.80;99.90
51559;DHT22;61650;48.882;2.092;2023-09-19T02:15:53;12.80;99.90
51559;DHT22;61650;48.882;2.092;2023-09-19T02:18:19;12.80;99.90
51559;DHT22;61650;48.882;2.092;2023-09-19T02:20:44;12.80;99.90
51559;DHT22;61650;48.882;2.092;2023-09-19T02:23:11;12.80;99.90
51559;DHT22;61650;48.882;2.092;2023-09-19T02:25:38;12.80;99.90
51559;DHT22;61650;48.882;2.092;2023-09-19T02:28:04;12.80;99.90
51559;DHT22;61650;48.882;2.092;2023-09-19T02:30:32;12.80;99.90
51559;DHT22;61650;48.882;2.092;2023-09-19T02:32:58;12.80;99.90
51559;DHT22;61650;48.882;2.092;2023-09-19T02:35:23;12.70;99.90
51559;DHT22;61650;48.882;2.092;2023-09-19T02:37:50;12.70;99.90
51559;DHT22;61650;48.882;2.092;2023-09-19T02:40:16;12.60;99.90
51559;DHT22;61650;48.882;2.092;2023-09-19T02:42:47;12.70;99.90
51559;DHT22;61650;48.882;2.092;2023-09-19T02:45:17;12.70;99.90
51559;DHT22;61650;48.882;2.092;2023-09-19T02:47:43;12.70;99.90
51559;DHT22;61650;48.882;2.092;2023-09-19T02:50:09;12.60;99.90
51559;DHT22;61650;48.882;2.092;2023-09-19T02:52:38;12.60;99.90
51559;DHT22;61650;48.882;2.092;2023-09-19T02:55:07;12.60;99.90
51559;DHT22;61650;48.882;2.092;2023-09-19T02:57:35;12.60;99.90
51559;DHT22;61650;48.882;2.092;2023-09-19T03:00:01;12.60;99.90
51559;DHT22;61650;48.882;2.092;2023-09-19T03:02:27;12.60;99.90
51559;DHT22;61650;48.882;2.092;2023-09-19T03:04:53;12.60;99.90
51559;DHT22;61650;48.882;2.092;2023-09-19T03:07:19;12.60;99.90
51559;DHT22;61650;48.882;2.092;2023-09-19T03:09:44;12.60;99.90
51559;DHT22;61650;48.882;2.092;2023-09-19T03:12:10;12.60;99.90
51559;DHT22;61650;48.882;2.092;2023-09-19T03:14:36;12.60;99.90
51559;DHT22;61650;48.882;2.092;2023-09-19T03:17:01;12.60;99.90
51559;DHT22;61650;48.882;2.092;2023-09-19T03:19:30;12.50;99.90
51559;DHT22;61650;48.882;2.092;2023-09-19T03:21:56;12.50;99.90
51559;DHT22;61650;48.882;2.092;2023-09-19T03:24:22;12.50;99.90
51559;DHT22;61650;48.882;2.092;2023-09-19T03:26:48;12.50;99.90
51559;DHT22;61650;48.882;2.092;2023-09-19T03:29:14;12.50;99.90
51559;DHT22;61650;48.882;2.092;2023-09-19T03:31:41;12.50;99.90
51559;DHT22;61650;48.882;2.092;2023-09-19T03:34:06;12.50;99.90
51559;DHT22;61650;48.882;2.092;2023-09-19T03:36:32;12.50;99.90
51559;DHT22;61650;48.882;2.092;2023-09-19T03:38:57;12.50;99.90
51559;DHT22;61650;48.882;2.092;2023-09-19T03:41:23;12.50;99.90
51559;DHT22;61650;48.882;2.092;2023-09-19T03:43:48;12.50;99.90
51559;DHT22;61650;48.882;2.092;2023-09-19T03:46:14;12.50;99.90
51559;DHT22;61650;48.882;2.092;2023-09-19T03:48:40;12.50;99.90
51559;DHT22;61650;48.882;2.092;2023-09-19T03:51:06;12.50;99.90
51559;DHT22;61650;48.882;2.092;2023-09-19T03:53:31;12.50;99.90
51559;DHT22;61650;48.882;2.092;2023-09-19T03:55:56;12.50;99.90
51559;DHT22;61650;48.882;2.092;2023-09-19T03:58:22;12.50;99.90
51559;DHT22;61650;48.882;2.092;2023-09-19T04:00:48;12.50;99.90
51559;DHT22;61650;48.882;2.092;2023-09-19T04:03:15;12.50;99.90
51559;DHT22;61650;48.882;2.092;2023-09-19T04:05:46;12.50;99.90
51559;DHT22;61650;48.882;2.092;2023-09-19T04:08:12;12.50;99.90
51559;DHT22;61650;48.882;2.092;2023-09-19T04:10:41;12.50;99.90
51559;DHT22;61650;48.882;2.092;2023-09-19T04:13:07;12.40;99.90
51559;DHT22;61650;48.882;2.092;2023-09-19T04:15:32;12.40;99.90
51559;DHT22;61650;48.882;2.092;2023-09-19T04:17:58;12.40;99.90
51559;DHT22;61650;48.882;2.092;2023-09-19T04:20:23;12.50;99.90
51559;DHT22;61650;48.882;2.092;2023-09-19T04:22:49;12.40;99.90
51559;DHT22;61650;48.882;2.092;2023-09-19T04:25:15;12.40;99.90
51559;DHT22;61650;48.882;2.092;2023-09-19T04:27:40;12.40;99.90
51559;DHT22;61650;48.882;2.092;2023-09-19T04:30:09;12.40;99.90
51559;DHT22;61650;48.882;2.092;2023-09-19T04:32:35;12.40;99.90
51559;DHT22;61650;48.882;2.092;2023-09-19T04:35:03;12.40;99.90
51559;DHT22;61650;48.882;2.092;2023-09-19T04:37:31;12.30;99.90
51559;DHT22;61650;48.882;2.092;2023-09-19T04:39:56;12.40;99.90
51559;DHT22;61650;48.882;2.092;2023-09-19T04:42:22;12.30;99.90
51559;DHT22;61650;48.882;2.092;2023-09-19T04:44:50;12.30;99.90
51559;DHT22;61650;48.882;2.092;2023-09-19T04:47:18;12.30;99.90
51559;DHT22;61650;48.882;2.092;2023-09-19T04:49:43;12.30;99.90
51559;DHT22;61650;48.882;2.092;2023-09-19T04:52:08;12.20;99.90
51559;DHT22;61650;48.882;2.092;2023-09-19T04:54:34;12.20;99.90
51559;DHT22;61650;48.882;2.092;2023-09-19T04:56:59;12.20;99.90
51559;DHT22;61650;48.882;2.092;2023-09-19T04:59:26;12.20;99.90
51559;DHT22;61650;48.882;2.092;2023-09-19T05:01:51;12.20;99.90
51559;DHT22;61650;48.882;2.092;2023-09-19T05:04:17;12.20;99.90
51559;DHT22;61650;48.882;2.092;2023-09-19T05:06:42;12.20;99.90
51559;DHT22;61650;48.882;2.092;2023-09-19T05:09:08;12.10;99.90
51559;DHT22;61650;48.882;2.092;2023-09-19T05:11:33;12.10;99.90
51559;DHT22;61650;48.882;2.092;2023-09-19T05:13:59;12.10;99.90
51559;DHT22;61650;48.882;2.092;2023-09-19T05:16:29;12.10;99.90
51559;DHT22;61650;48.882;2.092;2023-09-19T05:18:57;12.00;99.90
51559;DHT22;61650;48.882;2.092;2023-09-19T05:21:23;12.00;99.90
51559;DHT22;61650;48.882;2.092;2023-09-19T05:23:51;12.00;99.90
51559;DHT22;61650;48.882;2.092;2023-09-19T05:26:17;12.00;99.90
51559;DHT22;61650;48.882;2.092;2023-09-19T05:28:43;12.00;99.90
51559;DHT22;61650;48.882;2.092;2023-09-19T05:31:08;12.00;99.90
51559;DHT22;61650;48.882;2.092;2023-09-19T05:33:34;11.90;99.90
51559;DHT22;61650;48.882;2.092;2023-09-19T05:35:59;11.90;99.90
51559;DHT22;61650;48.882;2.092;2023-09-19T05:38:25;11.90;99.90
51559;DHT22;61650;48.882;2.092;2023-09-19T05:40:51;11.90;99.90
51559;DHT22;61650;48.882;2.092;2023-09-19T05:43:17;11.90;99.90
51559;DHT22;61650;48.882;2.092;2023-09-19T05:45:43;11.90;99.90
51559;DHT22;61650;48.882;2.092;2023-09-19T05:48:11;11.90;99.90
51559;DHT22;61650;48.882;2.092;2023-09-19T05:50:37;11.80;99.90
51559;DHT22;61650;48.882;2.092;2023-09-19T05:53:02;11.80;99.90
51559;DHT22;61650;48.882;2.092;2023-09-19T05:55:29;11.80;99.90
51559;DHT22;61650;48.882;2.092;2023-09-19T05:57:55;11.80;99.90
51559;DHT22;61650;48.882;2.092;2023-09-19T06:00:21;11.80;99.90
51559;DHT22;61650;48.882;2.092;2023-09-19T06:02:53;11.80;99.90
51559;DHT22;61650;48.882;2.092;2023-09-19T06:05:19;11.80;99.90
51559;DHT22;61650;48.882;2.092;2023-09-19T06:07:45;11.90;99.90
51559;DHT22;61650;48.882;2.092;2023-09-19T06:10:11;11.90;99.90
51559;DHT22;61650;48.882;2.092;2023-09-19T06:12:40;11.90;99.90
51559;DHT22;61650;48.882;2.092;2023-09-19T06:15:06;12.00;99.90
51559;DHT22;61650;48.882;2.092;2023-09-19T06:17:34;12.00;99.90
51559;DHT22;61650;48.882;2.092;2023-09-19T06:20:04;12.10;99.90
51559;DHT22;61650;48.882;2.092;2023-09-19T06:22:30;12.10;99.90
51559;DHT22;61650;48.882;2.092;2023-09-19T06:24:55;12.20;99.90
51559;DHT22;61650;48.882;2.092;2023-09-19T06:27:21;12.20;99.90
51559;DHT22;61650;48.882;2.092;2023-09-19T06:29:47;12.30;99.90
51559;DHT22;61650;48.882;2.092;2023-09-19T06:32:12;12.40;99.90
51559;DHT22;61650;48.882;2.092;2023-09-19T06:34:38;12.40;99.90
51559;DHT22;61650;48.882;2.092;2023-09-19T06:37:04;12.50;99.90
51559;DHT22;61650;48.882;2.092;2023-09-19T06:39:31;12.60;99.90
51559;DHT22;61650;48.882;2.092;2023-09-19T06:41:56;12.70;99.90
51559;DHT22;61650;48.882;2.092;2023-09-19T06:44:22;12.80;99.90
51559;DHT22;61650;48.882;2.092;2023-09-19T06:46:50;12.80;99.90
51559;DHT22;61650;48.882;2.092;2023-09-19T06:49:19;12.90;99.90
51559;DHT22;61650;48.882;2.092;2023-09-19T06:51:45;12.90;99.90
51559;DHT22;61650;48.882;2.092;2023-09-19T06:54:10;13.10;99.90
51559;DHT22;61650;48.882;2.092;2023-09-19T06:56:36;13.20;99.90
51559;DHT22;61650;48.882;2.092;2023-09-19T06:59:02;13.20;99.90
51559;DHT22;61650;48.882;2.092;2023-09-19T07:01:28;13.30;99.90
51559;DHT22;61650;48.882;2.092;2023-09-19T07:03:54;13.40;99.90
51559;DHT22;61650;48.882;2.092;2023-09-19T07:06:20;13.50;99.90
51559;DHT22;61650;48.882;2.092;2023-09-19T07:08:45;13.60;99.90
51559;DHT22;61650;48.882;2.092;2023-09-19T07:11:11;13.60;99.90
51559;DHT22;61650;48.882;2.092;2023-09-19T07:13:37;13.70;99.90
51559;DHT22;61650;48.882;2.092;2023-09-19T07:16:03;13.80;99.90
51559;DHT22;61650;48.882;2.092;2023-09-19T07:18:29;13.90;99.90
51559;DHT22;61650;48.882;2.092;2023-09-19T07:20:58;13.90;99.90
51559;DHT22;61650;48.882;2.092;2023-09-19T07:23:30;14.00;99.90
51559;DHT22;61650;48.882;2.092;2023-09-19T07:26:03;14.00;99.90
51559;DHT22;61650;48.882;2.092;2023-09-19T07:28:30;14.10;99.90
51559;DHT22;61650;48.882;2.092;2023-09-19T07:30:56;14.20;99.90
51559;DHT22;61650;48.882;2.092;2023-09-19T07:33:21;14.20;99.90
51559;DHT22;61650;48.882;2.092;2023-09-19T07:35:47;14.30;99.90
51559;DHT22;61650;48.882;2.092;2023-09-19T07:38:13;14.40;99.40
51559;DHT22;61650;48.882;2.092;2023-09-19T07:40:38;14.40;99.20
51559;DHT22;61650;48.882;2.092;2023-09-19T07:43:04;14.50;98.80
51559;DHT22;61650;48.882;2.092;2023-09-19T07:45:30;14.50;98.40
51559;DHT22;61650;48.882;2.092;2023-09-19T07:47:56;14.50;99.30
51559;DHT22;61650;48.882;2.092;2023-09-19T07:50:21;14.60;98.50
51559;DHT22;61650;48.882;2.092;2023-09-19T07:52:47;14.70;98.20
51559;DHT22;61650;48.882;2.092;2023-09-19T07:55:14;14.70;99.10
51559;DHT22;61650;48.882;2.092;2023-09-19T07:57:44;14.70;98.40
51559;DHT22;61650;48.882;2.092;2023-09-19T08:00:11;14.80;97.50
51559;DHT22;61650;48.882;2.092;2023-09-19T08:02:37;14.80;97.40
51559;DHT22;61650;48.882;2.092;2023-09-19T08:05:03;14.80;96.70
51559;DHT22;61650;48.882;2.092;2023-09-19T08:07:34;14.80;95.90
51559;DHT22;61650;48.882;2.092;2023-09-19T08:10:01;14.80;96.70
51559;DHT22;61650;48.882;2.092;2023-09-19T08:12:26;14.80;96.70
51559;DHT22;61650;48.882;2.092;2023-09-19T08:14:52;14.90;96.50
51559;DHT22;61650;48.882;2.092;2023-09-19T08:17:18;14.90;97.20
51559;DHT22;61650;48.882;2.092;2023-09-19T08:19:45;14.90;97.10
51559;DHT22;61650;48.882;2.092;2023-09-19T08:22:11;14.90;97.20
51559;DHT22;61650;48.882;2.092;2023-09-19T08:24:37;14.90;97.90
51559;DHT22;61650;48.882;2.092;2023-09-19T08:27:03;15.00;97.30
51559;DHT22;61650;48.882;2.092;2023-09-19T08:29:30;15.10;96.70
51559;DHT22;61650;48.882;2.092;2023-09-19T08:31:56;15.10;96.60
51559;DHT22;61650;48.882;2.092;2023-09-19T08:34:23;15.10;97.10
51559;DHT22;61650;48.882;2.092;2023-09-19T08:36:55;15.20;97.30
51559;DHT22;61650;48.882;2.092;2023-09-19T08:39:26;15.30;95.60
51559;DHT22;61650;48.882;2.092;2023-09-19T08:41:59;15.40;96.60
51559;DHT22;61650;48.882;2.092;2023-09-19T08:44:25;15.50;94.00
51559;DHT22;61650;48.882;2.092;2023-09-19T08:46:51;15.50;94.00
51559;DHT22;61650;48.882;2.092;2023-09-19T08:49:27;15.50;94.40
51559;DHT22;61650;48.882;2.092;2023-09-19T08:52:04;15.60;93.20
51559;DHT22;61650;48.882;2.092;2023-09-19T08:54:35;15.60;93.20
51559;DHT22;61650;48.882;2.092;2023-09-19T08:57:05;15.70;92.30
51559;DHT22;61650;48.882;2.092;2023-09-19T08:59:33;15.70;93.90
51559;DHT22;61650;48.882;2.092;2023-09-19T09:02:00;15.80;93.10
51559;DHT22;61650;48.882;2.092;2023-09-19T09:04:26;16.00;91.10
51559;DHT22;61650;48.882;2.092;2023-09-19T09:06:52;16.00;89.70
51559;DHT22;61650;48.882;2.092;2023-09-19T09:09:20;16.00;91.40
51559;DHT22;61650;48.882;2.092;2023-09-19T09:11:47;16.00;92.00
51559;DHT22;61650;48.882;2.092;2023-09-19T09:14:13;16.10;92.20
51559;DHT22;61650;48.882;2.092;2023-09-19T09:16:39;16.20;92.00
51559;DHT22;61650;48.882;2.092;2023-09-19T09:19:04;16.30;89.90
51559;DHT22;61650;48.882;2.092;2023-09-19T09:21:30;16.30;91.20
51559;DHT22;61650;48.882;2.092;2023-09-19T09:24:20;16.40;89.30
51559;DHT22;61650;48.882;2.092;2023-09-19T09:26:46;16.50;89.20
51559;DHT22;61650;48.882;2.092;2023-09-19T09:29:13;16.60;91.00
51559;DHT22;61650;48.882;2.092;2023-09-19T09:31:38;16.60;91.10
51559;DHT22;61650;48.882;2.092;2023-09-19T09:34:06;16.70;88.80
51559;DHT22;61650;48.882;2.092;2023-09-19T09:36:41;16.80;91.50
51559;DHT22;61650;48.882;2.092;2023-09-19T09:39:07;17.00;87.40
51559;DHT22;61650;48.882;2.092;2023-09-19T09:41:44;17.10;87.50
51559;DHT22;61650;48.882;2.092;2023-09-19T09:44:15;17.20;84.70
51559;DHT22;61650;48.882;2.092;2023-09-19T09:46:44;17.30;85.40
51559;DHT22;61650;48.882;2.092;2023-09-19T09:49:25;17.30;85.70
51559;DHT22;61650;48.882;2.092;2023-09-19T09:52:03;17.40;82.80
51559;DHT22;61650;48.882;2.092;2023-09-19T09:55:01;17.50;81.00
51559;DHT22;61650;48.882;2.092;2023-09-19T09:57:30;17.60;81.50
51559;DHT22;61650;48.882;2.092;2023-09-19T09:59:57;17.80;80.30
51559;DHT22;61650;48.882;2.092;2023-09-19T10:02:42;17.90;78.00
51559;DHT22;61650;48.882;2.092;2023-09-19T10:05:13;18.00;77.00
51559;DHT22;61650;48.882;2.092;2023-09-19T10:07:41;18.00;77.10
51559;DHT22;61650;48.882;2.092;2023-09-19T10:10:14;18.00;75.70
51559;DHT22;61650;48.882;2.092;2023-09-19T10:12:47;18.00;75.20
51559;DHT22;61650;48.882;2.092;2023-09-19T10:15:14;18.00;77.60
51559;DHT22;61650;48.882;2.092;2023-09-19T10:17:42;18.10;77.10
51559;DHT22;61650;48.882;2.092;2023-09-19T10:20:08;18.20;74.80
51559;DHT22;61650;48.882;2.092;2023-09-19T10:22:44;18.20;76.30
51559;DHT22;61650;48.882;2.092;2023-09-19T10:25:15;18.20;78.50
51559;DHT22;61650;48.882;2.092;2023-09-19T10:27:45;18.20;77.30
51559;DHT22;61650;48.882;2.092;2023-09-19T10:30:11;18.30;74.00
51559;DHT22;61650;48.882;2.092;2023-09-19T10:32:36;18.30;73.30
51559;DHT22;61650;48.882;2.092;2023-09-19T10:35:05;18.30;74.20
51559;DHT22;61650;48.882;2.092;2023-09-19T10:37:32;18.30;74.30
51559;DHT22;61650;48.882;2.092;2023-09-19T10:39:57;18.30;74.40
51559;DHT22;61650;48.882;2.092;2023-09-19T10:42:23;18.20;77.00
51559;DHT22;61650;48.882;2.092;2023-09-19T10:44:53;18.30;74.20
51559;DHT22;61650;48.882;2.092;2023-09-19T10:47:19;18.30;76.10
51559;DHT22;61650;48.882;2.092;2023-09-19T10:49:45;18.30;75.40
51559;DHT22;61650;48.882;2.092;2023-09-19T10:52:12;18.30;76.40
51559;DHT22;61650;48.882;2.092;2023-09-19T10:54:44;18.30;78.20
51559;DHT22;61650;48.882;2.092;2023-09-19T10:57:11;18.40;76.50
51559;DHT22;61650;48.882;2.092;2023-09-19T10:59:37;18.50;77.70
51559;DHT22;61650;48.882;2.092;2023-09-19T11:02:23;18.60;75.20
51559;DHT22;61650;48.882;2.092;2023-09-19T11:04:50;18.70;73.80
51559;DHT22;61650;48.882;2.092;2023-09-19T11:07:16;18.70;72.10
51559;DHT22;61650;48.882;2.092;2023-09-19T11:15:06;18.70;71.00
51559;DHT22;61650;48.882;2.092;2023-09-19T13:03:10;20.50;70.70
51559;DHT22;61650;48.882;2.092;2023-09-19T13:05:49;20.40;70.30
51559;DHT22;61650;48.882;2.092;2023-09-19T13:08:24;20.50;71.90
51559;DHT22;61650;48.882;2.092;2023-09-19T13:11:35;20.60;71.00
51559;DHT22;61650;48.882;2.092;2023-09-19T13:13:50;20.60;69.60
51559;DHT22;61650;48.882;2.092;2023-09-19T13:16:19;20.70;71.90
51559;DHT22;61650;48.882;2.092;2023-09-19T13:18:48;20.70;70.60
51559;DHT22;61650;48.882;2.092;2023-09-19T13:21:17;20.70;69.80
51559;DHT22;61650;48.882;2.092;2023-09-19T13:23:52;20.70;69.70
51559;DHT22;61650;48.882;2.092;2023-09-19T13:26:19;20.60;69.20
51559;DHT22;61650;48.882;2.092;2023-09-19T13:28:45;20.50;70.40
51559;DHT22;61650;48.882;2.092;2023-09-19T13:31:13;20.40;71.80
51559;DHT22;61650;48.882;2.092;2023-09-19T13:33:43;20.50;69.40
51559;DHT22;61650;48.882;2.092;2023-09-19T13:36:08;20.60;70.10
51559;DHT22;61650;48.882;2.092;2023-09-19T13:38:34;20.80;69.30
51559;DHT22;61650;48.882;2.092;2023-09-19T13:41:00;20.90;70.90
51559;DHT22;61650;48.882;2.092;2023-09-19T13:43:27;20.90;70.60
51559;DHT22;61650;48.882;2.092;2023-09-19T13:45:54;21.30;73.50
51559;DHT22;61650;48.882;2.092;2023-09-19T13:48:19;21.40;74.80
51559;DHT22;61650;48.882;2.092;2023-09-19T13:50:48;21.30;69.90
51559;DHT22;61650;48.882;2.092;2023-09-19T13:53:13;21.40;68.10
51559;DHT22;61650;48.882;2.092;2023-09-19T13:55:39;21.50;64.60
51559;DHT22;61650;48.882;2.092;2023-09-19T13:58:05;21.50;65.20
51559;DHT22;61650;48.882;2.092;2023-09-19T14:00:32;21.50;65.00
51559;DHT22;61650;48.882;2.092;2023-09-19T14:03:00;21.50;66.00
51559;DHT22;61650;48.882;2.092;2023-09-19T14:05:26;21.30;67.50
51559;DHT22;61650;48.882;2.092;2023-09-19T14:07:53;21.00;68.80
51559;DHT22;61650;48.882;2.092;2023-09-19T14:10:21;20.80;68.70
51559;DHT22;61650;48.882;2.092;2023-09-19T14:12:46;20.60;70.00
51559;DHT22;61650;48.882;2.092;2023-09-19T14:15:13;20.60;70.20
51559;DHT22;61650;48.882;2.092;2023-09-19T14:17:39;20.70;70.30
51559;DHT22;61650;48.882;2.092;2023-09-19T14:20:07;20.60;69.90
51559;DHT22;61650;48.882;2.092;2023-09-19T14:22:35;20.60;70.60
51559;DHT22;61650;48.882;2.092;2023-09-19T14:25:02;20.50;68.60
51559;DHT22;61650;48.882;2.092;2023-09-19T14:27:28;20.50;70.50
51559;DHT22;61650;48.882;2.092;2023-09-19T14:29:53;20.50;72.50
51559;DHT22;61650;48.882;2.092;2023-09-19T14:32:19;20.50;71.20
51559;DHT22;61650;48.882;2.092;2023-09-19T14:34:44;20.70;69.10
51559;DHT22;61650;48.882;2.092;2023-09-19T14:37:11;20.70;71.50
51559;DHT22;61650;48.882;2.092;2023-09-19T14:39:36;20.60;71.10
51559;DHT22;61650;48.882;2.092;2023-09-19T14:42:04;20.70;74.90
51559;DHT22;61650;48.882;2.092;2023-09-19T14:44:29;20.70;70.90
51559;DHT22;61650;48.882;2.092;2023-09-19T14:46:55;20.70;72.30
51559;DHT22;61650;48.882;2.092;2023-09-19T14:49:20;20.70;74.00
51559;DHT22;61650;48.882;2.092;2023-09-19T14:51:46;20.70;70.00
51559;DHT22;61650;48.882;2.092;2023-09-19T14:54:13;20.70;72.20
51559;DHT22;61650;48.882;2.092;2023-09-19T14:56:39;20.70;68.10
51559;DHT22;61650;48.882;2.092;2023-09-19T14:59:05;20.70;68.00
51559;DHT22;61650;48.882;2.092;2023-09-19T15:01:32;20.70;69.30
51559;DHT22;61650;48.882;2.092;2023-09-19T15:03:57;20.70;70.10
51559;DHT22;61650;48.882;2.092;2023-09-19T15:06:23;20.70;71.50
51559;DHT22;61650;48.882;2.092;2023-09-19T15:08:49;20.70;69.60
51559;DHT22;61650;48.882;2.092;2023-09-19T15:11:18;20.70;70.50
51559;DHT22;61650;48.882;2.092;2023-09-19T15:13:44;20.70;69.60
51559;DHT22;61650;48.882;2.092;2023-09-19T15:16:10;20.70;70.00
51559;DHT22;61650;48.882;2.092;2023-09-19T15:18:36;20.60;71.40
51559;DHT22;61650;48.882;2.092;2023-09-19T15:21:06;20.60;73.80
51559;DHT22;61650;48.882;2.092;2023-09-19T15:23:32;20.60;73.10
51559;DHT22;61650;48.882;2.092;2023-09-19T15:26:02;20.60;73.40
51559;DHT22;61650;48.882;2.092;2023-09-19T15:28:28;20.60;73.20
51559;DHT22;61650;48.882;2.092;2023-09-19T15:31:02;20.70;74.80
51559;DHT22;61650;48.882;2.092;2023-09-19T15:33:28;20.90;72.00
51559;DHT22;61650;48.882;2.092;2023-09-19T15:36:02;20.90;71.40
51559;DHT22;61650;48.882;2.092;2023-09-19T15:38:29;20.90;72.20
51559;DHT22;61650;48.882;2.092;2023-09-19T15:40:55;20.90;72.60
51559;DHT22;61650;48.882;2.092;2023-09-19T15:43:20;20.90;71.70
51559;DHT22;61650;48.882;2.092;2023-09-19T15:45:47;20.80;72.60
51559;DHT22;61650;48.882;2.092;2023-09-19T15:48:13;20.70;71.30
51559;DHT22;61650;48.882;2.092;2023-09-19T15:50:39;20.70;72.10
51559;DHT22;61650;48.882;2.092;2023-09-19T15:53:07;20.70;72.20
51559;DHT22;61650;48.882;2.092;2023-09-19T15:55:40;20.70;70.20
51559;DHT22;61650;48.882;2.092;2023-09-19T15:58:05;20.60;72.00
51559;DHT22;61650;48.882;2.092;2023-09-19T16:00:34;20.60;73.50
51559;DHT22;61650;48.882;2.092;2023-09-19T16:03:05;20.60;74.60
51559;DHT22;61650;48.882;2.092;2023-09-19T16:05:37;20.70;73.60
51559;DHT22;61650;48.882;2.092;2023-09-19T16:08:05;20.70;72.60
51559;DHT22;61650;48.882;2.092;2023-09-19T16:10:34;20.80;71.40
51559;DHT22;61650;48.882;2.092;2023-09-19T16:12:59;20.80;71.00
51559;DHT22;61650;48.882;2.092;2023-09-19T16:15:25;20.70;72.50
51559;DHT22;61650;48.882;2.092;2023-09-19T16:17:50;20.70;72.50
51559;DHT22;61650;48.882;2.092;2023-09-19T16:20:16;20.70;74.20
51559;DHT22;61650;48.882;2.092;2023-09-19T16:22:44;20.70;74.50
51559;DHT22;61650;48.882;2.092;2023-09-19T16:25:11;20.70;73.70
51559;DHT22;61650;48.882;2.092;2023-09-19T16:27:37;20.60;77.50
51559;DHT22;61650;48.882;2.092;2023-09-19T16:30:02;20.60;76.60
51559;DHT22;61650;48.882;2.092;2023-09-19T16:32:28;20.60;78.00
51559;DHT22;61650;48.882;2.092;2023-09-19T16:34:53;20.70;73.20
51559;DHT22;61650;48.882;2.092;2023-09-19T16:37:19;20.70;75.60
51559;DHT22;61650;48.882;2.092;2023-09-19T16:39:44;20.60;77.10
51559;DHT22;61650;48.882;2.092;2023-09-19T16:42:10;20.60;76.00
51559;DHT22;61650;48.882;2.092;2023-09-19T16:44:37;20.60;75.80
51559;DHT22;61650;48.882;2.092;2023-09-19T16:47:03;20.50;74.50
51559;DHT22;61650;48.882;2.092;2023-09-19T16:49:30;20.60;72.60
51559;DHT22;61650;48.882;2.092;2023-09-19T16:51:55;20.60;73.50
51559;DHT22;61650;48.882;2.092;2023-09-19T16:54:21;20.50;74.40
51559;DHT22;61650;48.882;2.092;2023-09-19T16:56:48;20.40;74.60
51559;DHT22;61650;48.882;2.092;2023-09-19T16:59:14;20.40;77.40
51559;DHT22;61650;48.882;2.092;2023-09-19T17:01:39;20.50;72.50
51559;DHT22;61650;48.882;2.092;2023-09-19T17:04:05;20.50;73.40
51559;DHT22;61650;48.882;2.092;2023-09-19T17:06:33;20.50;72.70
51559;DHT22;61650;48.882;2.092;2023-09-19T17:08:58;20.40;76.10
51559;DHT22;61650;48.882;2.092;2023-09-19T17:11:24;20.40;76.60
51559;DHT22;61650;48.882;2.092;2023-09-19T17:13:50;20.30;75.30
51559;DHT22;61650;48.882;2.092;2023-09-19T17:16:17;20.20;79.40
51559;DHT22;61650;48.882;2.092;2023-09-19T17:18:49;20.10;77.70
51559;DHT22;61650;48.882;2.092;2023-09-19T17:21:15;20.00;79.00
51559;DHT22;61650;48.882;2.092;2023-09-19T17:23:41;20.00;78.90
51559;DHT22;61650;48.882;2.092;2023-09-19T17:28:33;20.00;82.90
51559;DHT22;61650;48.882;2.092;2023-09-19T17:30:59;20.00;79.40
51559;DHT22;61650;48.882;2.092;2023-09-19T17:33:25;20.00;80.10
51559;DHT22;61650;48.882;2.092;2023-09-19T17:35:52;19.90;79.90
51559;DHT22;61650;48.882;2.092;2023-09-19T17:38:17;20.00;79.10
51559;DHT22;61650;48.882;2.092;2023-09-19T17:40:43;19.90;81.70
51559;DHT22;61650;48.882;2.092;2023-09-19T17:43:09;19.90;81.80
51559;DHT22;61650;48.882;2.092;2023-09-19T17:45:35;19.80;84.20